createdAt,value
2018-07-09T00:00:05.545Z,0.00
2018-07-09T00:01:07.422Z,0.00
2018-07-09T00:02:06.122Z,0.00
2018-07-09T00:03:06.513Z,0.00
2018-07-09T04:00:28.805Z,1640.00
2018-07-09T04:01:28.751Z,1692.00
2018-07-09T04:02:28.744Z,1732.00
2018-07-09T04:03:28.779Z,1744.00
2018-07-09T04:04:28.717Z,1760.00
2018-07-09T04:05:28.714Z,1812.00
2018-07-09T04:06:28.692Z,1912.00
2018-07-09T04:07:28.677Z,2044.00
2018-07-09T04:08:28.698Z,2096.00
2018-07-09T04:09:28.652Z,2112.00
2018-07-09T04:10:28.644Z,2164.00
2018-07-09T04:11:28.650Z,2316.00
2018-07-09T04:12:28.630Z,2500.00
2018-07-09T04:13:28.636Z,2540.00
2018-07-09T04:14:28.603Z,2444.00
2018-07-09T04:15:28.584Z,2540.00
2018-07-09T04:16:28.576Z,2540.00
2018-07-09T04:17:28.572Z,2556.00
2018-07-09T04:18:28.570Z,2572.00
2018-07-09T04:19:28.549Z,2540.00
2018-07-09T04:20:28.537Z,2488.00
2018-07-09T04:21:28.524Z,2452.00
2018-07-09T04:22:28.514Z,2576.00
2018-07-09T04:23:28.578Z,2688.00
2018-07-09T04:24:28.507Z,2632.00
2018-07-09T04:25:28.478Z,2600.00
2018-07-09T04:26:28.470Z,2640.00
2018-07-09T04:27:28.471Z,2684.00
2018-07-09T04:28:28.461Z,2716.00
2018-07-09T04:29:28.434Z,2752.00
2018-07-09T04:30:28.417Z,2840.00
2018-07-09T04:31:28.406Z,2860.00
2018-07-09T04:32:28.396Z,2868.00
2018-07-09T04:33:28.430Z,2912.00
2018-07-09T04:34:28.372Z,2904.00
2018-07-09T04:35:28.360Z,2892.00
2018-07-09T04:36:28.352Z,2908.00
2018-07-09T04:37:28.339Z,2908.00
2018-07-09T04:38:28.342Z,2916.00
2018-07-09T04:39:28.320Z,2948.00
2018-07-09T04:40:28.310Z,2996.00
2018-07-09T04:41:28.295Z,3040.00
2018-07-09T04:42:28.284Z,3064.00
2018-07-09T04:43:28.300Z,3084.00
2018-07-09T04:44:28.261Z,3108.00
2018-07-09T04:45:28.254Z,3136.00
2018-07-09T04:46:28.240Z,3172.00
2018-07-09T04:47:28.226Z,3236.00
2018-07-09T04:48:28.226Z,3360.00
2018-07-09T04:49:28.208Z,3404.00
2018-07-09T04:50:28.195Z,3432.00
2018-07-09T04:51:28.184Z,3452.00
2018-07-09T04:52:28.171Z,3476.00
2018-07-09T04:53:28.179Z,3492.00
2018-07-09T04:54:28.151Z,3504.00
2018-07-09T04:55:28.158Z,3524.00
2018-07-09T04:56:28.126Z,3556.00
2018-07-09T04:57:28.118Z,3584.00
2018-07-09T04:58:28.146Z,3616.00
2018-07-09T04:59:28.095Z,3620.00
2018-07-09T05:00:28.110Z,3640.00
2018-07-09T05:01:28.074Z,3668.00
2018-07-09T05:02:28.061Z,3712.00
2018-07-09T05:03:28.056Z,3760.00
2018-07-09T05:04:28.053Z,3832.00
2018-07-09T05:05:28.029Z,3916.00
2018-07-09T05:06:28.022Z,3988.00
2018-07-09T05:07:28.011Z,4024.00
2018-07-09T05:08:27.995Z,4060.00
2018-07-09T05:09:27.996Z,4092.00
2018-07-09T05:10:27.973Z,4156.00
2018-07-09T05:11:27.977Z,4408.00
2018-07-09T05:12:27.950Z,4348.00
2018-07-09T05:13:27.939Z,4264.00
2018-07-09T05:14:27.946Z,4376.00
2018-07-09T05:15:27.919Z,4448.00
2018-07-09T05:16:27.906Z,4536.00
2018-07-09T05:17:27.896Z,4552.00
2018-07-09T05:18:27.886Z,4560.00
2018-07-09T05:19:27.888Z,4528.00
2018-07-09T05:20:27.863Z,4564.00
2018-07-09T05:21:27.855Z,4648.00
2018-07-09T05:22:27.844Z,4748.00
2018-07-09T05:23:27.864Z,4872.00
2018-07-09T05:24:27.833Z,4992.00
2018-07-09T05:25:27.828Z,5084.00
2018-07-09T05:26:27.815Z,5136.00
2018-07-09T05:27:27.796Z,5172.00
2018-07-09T05:28:27.779Z,5196.00
2018-07-09T05:29:27.778Z,5264.00
2018-07-09T05:30:27.753Z,5404.00
2018-07-09T05:31:27.739Z,5612.00
2018-07-09T05:32:27.727Z,5884.00
2018-07-09T05:33:27.726Z,6024.00
2018-07-09T05:34:27.722Z,6188.00
2018-07-09T05:35:27.695Z,6416.00
2018-07-09T05:36:27.709Z,6436.00
2018-07-09T05:37:27.676Z,6288.00
2018-07-09T05:38:27.660Z,6236.00
2018-07-09T05:39:27.667Z,6416.00
2018-07-09T05:40:27.638Z,6796.00
2018-07-09T05:41:27.635Z,7064.00
2018-07-09T05:42:27.617Z,7060.00
2018-07-09T05:43:27.608Z,7028.00
2018-07-09T05:44:27.613Z,6960.00
2018-07-09T05:45:27.587Z,6856.00
2018-07-09T05:46:27.572Z,6724.00
2018-07-09T05:47:27.571Z,6680.00
2018-07-09T05:48:27.565Z,6636.00
2018-07-09T05:49:27.566Z,6584.00
2018-07-09T05:50:27.533Z,6492.00
2018-07-09T05:51:27.519Z,6380.00
2018-07-09T05:52:27.514Z,6208.00
2018-07-09T05:53:27.550Z,6012.00
2018-07-09T05:54:27.508Z,5784.00
2018-07-09T05:55:27.473Z,5612.00
2018-07-09T05:56:27.469Z,5648.00
2018-07-09T05:57:27.479Z,5924.00
2018-07-09T05:58:27.441Z,6620.00
2018-07-09T05:59:27.449Z,8592.00
2018-07-09T06:00:27.443Z,11552.00
2018-07-09T06:01:27.414Z,13368.00
2018-07-09T06:02:27.396Z,13512.00
2018-07-09T06:11:48.527Z,12504.00
2018-07-09T06:12:48.497Z,12284.00
2018-07-09T06:13:48.486Z,14656.00
2018-07-09T06:14:48.484Z,16224.00
2018-07-09T06:15:48.501Z,16608.00
2018-07-09T06:16:48.468Z,14288.00
2018-07-09T06:17:48.435Z,22336.00
2018-07-09T06:18:48.434Z,30848.00
2018-07-09T06:19:48.455Z,28512.00
2018-07-09T06:20:48.413Z,25568.00
2018-07-09T06:21:48.389Z,31040.00
2018-07-09T06:22:48.378Z,50944.00
2018-07-09T06:23:48.369Z,64800.00
2018-07-09T06:24:48.375Z,65312.00
2018-07-09T06:25:48.345Z,49344.00
2018-07-09T06:26:48.334Z,59072.00
2018-07-09T06:27:48.324Z,59296.00
2018-07-09T06:28:48.325Z,57088.00
2018-07-09T06:29:48.311Z,46464.00
2018-07-09T06:30:48.287Z,46688.00
2018-07-09T06:31:48.275Z,40512.00
2018-07-09T06:32:48.268Z,50528.00
2018-07-09T06:33:48.253Z,53536.00
2018-07-09T06:34:48.257Z,53184.00
2018-07-09T06:35:48.237Z,31232.00
2018-07-09T06:36:48.223Z,34880.00
2018-07-09T06:37:48.218Z,41696.00
2018-07-09T06:38:48.204Z,44576.00
2018-07-09T06:39:48.202Z,44416.00
2018-07-09T06:40:48.199Z,56288.00
2018-07-09T06:41:48.164Z,60224.00
2018-07-09T06:42:48.157Z,60832.00
2018-07-09T06:43:48.144Z,56896.00
2018-07-09T06:44:48.188Z,58400.00
2018-07-09T06:45:48.126Z,58112.00
2018-07-09T06:46:48.117Z,51328.00
2018-07-09T06:47:48.102Z,27296.00
2018-07-09T06:48:48.095Z,19392.00
2018-07-09T06:49:48.089Z,19680.00
2018-07-09T06:50:48.070Z,50656.00
2018-07-09T06:51:48.063Z,69952.00
2018-07-09T06:52:48.045Z,50400.00
2018-07-09T06:53:48.037Z,25280.00
2018-07-09T06:54:48.040Z,23136.00
2018-07-09T06:55:48.014Z,22912.00
2018-07-09T06:56:48.000Z,25728.00
2018-07-09T06:57:47.998Z,25088.00
2018-07-09T06:58:47.985Z,21728.00
2018-07-09T06:59:47.977Z,22880.00
2018-07-09T07:00:47.962Z,26496.00
2018-07-09T07:01:47.950Z,27584.00
2018-07-09T07:02:47.938Z,28128.00
2018-07-09T07:03:47.924Z,28096.00
2018-07-09T07:04:47.929Z,22432.00
2018-07-09T07:05:47.902Z,25664.00
2018-07-09T07:06:47.892Z,26624.00
2018-07-09T07:07:47.897Z,26240.00
2018-07-09T07:08:48.012Z,26624.00
2018-07-09T07:09:47.874Z,26976.00
2018-07-09T07:10:47.859Z,30624.00
2018-07-09T07:11:47.837Z,34624.00
2018-07-09T07:12:47.826Z,37056.00
2018-07-09T07:13:47.824Z,33600.00
2018-07-09T07:14:47.819Z,33216.00
2018-07-09T07:15:47.796Z,32096.00
2018-07-09T07:16:47.786Z,35104.00
2018-07-09T07:17:47.782Z,38816.00
2018-07-09T07:18:47.767Z,37824.00
2018-07-09T07:19:47.763Z,32000.00
2018-07-09T07:20:47.738Z,24544.00
2018-07-09T07:21:47.727Z,26336.00
2018-07-09T07:22:47.718Z,23168.00
2018-07-09T07:23:47.706Z,36480.00
2018-07-09T07:24:47.709Z,45696.00
2018-07-09T07:25:47.689Z,48000.00
2018-07-09T07:26:47.705Z,46656.00
2018-07-09T07:27:47.666Z,55584.00
2018-07-09T07:28:47.660Z,40032.00
2018-07-09T07:29:47.656Z,33184.00
2018-07-09T07:30:47.663Z,35392.00
2018-07-09T07:31:47.619Z,50624.00
2018-07-09T07:32:47.667Z,68128.00
2018-07-09T07:33:47.600Z,83520.00
2018-07-09T07:34:47.601Z,109120.00
2018-07-09T07:35:47.585Z,105760.00
2018-07-09T07:36:47.571Z,68000.00
2018-07-09T07:37:47.553Z,72032.00
2018-07-09T07:38:47.543Z,79424.00
2018-07-09T07:39:47.564Z,91552.00
2018-07-09T07:40:47.523Z,114368.00
2018-07-09T07:41:47.515Z,105312.00
2018-07-09T07:42:47.499Z,122784.00
2018-07-09T07:43:47.491Z,110272.00
2018-07-09T07:44:47.551Z,89984.00
2018-07-09T07:45:47.469Z,77920.00
2018-07-09T07:46:47.455Z,68608.00
2018-07-09T07:47:47.451Z,58976.00
2018-07-09T07:48:47.434Z,43072.00
2018-07-09T07:49:47.487Z,45216.00
2018-07-09T07:50:47.412Z,54240.00
2018-07-09T07:51:47.402Z,48192.00
2018-07-09T07:52:47.395Z,43456.00
2018-07-09T07:53:47.381Z,48864.00
2018-07-09T07:54:47.372Z,47296.00
2018-07-09T07:55:47.430Z,41792.00
2018-07-09T07:56:47.346Z,49888.00
2018-07-09T07:57:47.335Z,56128.00
2018-07-09T07:58:47.325Z,47776.00
2018-07-09T07:59:47.318Z,50688.00
2018-07-09T08:00:47.314Z,51840.00
2018-07-09T08:01:47.292Z,49184.00
2018-07-09T08:02:47.286Z,49568.00
2018-07-09T08:03:47.273Z,53984.00
2018-07-09T08:04:47.259Z,59424.00
2018-07-09T08:05:47.273Z,62976.00
2018-07-09T08:06:47.237Z,71616.00
2018-07-09T08:07:47.228Z,76032.00
2018-07-09T08:08:47.219Z,79776.00
2018-07-09T08:09:47.216Z,32608.00
2018-07-09T08:10:47.209Z,81728.00
2018-07-09T08:11:49.003Z,85504.00
2018-07-09T08:13:27.172Z,92352.00
2018-07-09T08:13:48.247Z,38208.00
2018-07-09T08:14:47.195Z,104032.00
2018-07-09T08:15:47.231Z,23840.00
2018-07-09T08:16:47.129Z,68672.00
2018-07-09T08:17:47.118Z,19872.00
2018-07-09T08:18:47.109Z,23616.00
2018-07-09T08:19:47.104Z,24672.00
2018-07-09T08:20:47.100Z,23200.00
2018-07-09T08:21:47.117Z,17088.00
2018-07-09T08:22:47.066Z,16864.00
2018-07-09T08:23:47.056Z,17600.00
2018-07-09T08:24:47.148Z,16144.00
2018-07-09T08:25:47.046Z,98528.00
2018-07-09T08:26:47.025Z,117376.00
2018-07-09T08:27:47.012Z,131904.00
2018-07-09T08:28:47.004Z,125760.00
2018-07-09T08:29:46.989Z,144096.00
2018-07-09T08:30:47.219Z,29472.00
2018-07-09T08:31:46.990Z,42432.00
2018-07-09T08:32:46.968Z,130112.00
2018-07-09T08:33:46.948Z,130144.00
2018-07-09T08:34:46.936Z,129760.00
2018-07-09T08:35:46.941Z,126272.00
2018-07-09T08:36:46.914Z,124960.00
2018-07-09T08:37:46.903Z,122272.00
2018-07-09T08:38:46.891Z,122592.00
2018-07-09T08:39:46.885Z,116032.00
2018-07-09T08:40:46.883Z,117728.00
2018-07-09T08:41:46.862Z,100640.00
2018-07-09T08:42:46.848Z,118784.00
2018-07-09T08:43:46.837Z,110880.00
2018-07-09T08:44:46.829Z,109472.00
2018-07-09T08:45:46.827Z,101280.00
2018-07-09T08:46:46.803Z,104864.00
2018-07-09T08:47:46.794Z,106016.00
2018-07-09T08:48:46.788Z,96992.00
2018-07-09T08:49:46.777Z,83520.00
2018-07-09T08:50:46.772Z,62944.00
2018-07-09T08:51:46.757Z,100224.00
2018-07-09T08:52:46.743Z,97888.00
2018-07-09T08:53:46.747Z,103392.00
2018-07-09T08:54:46.721Z,88256.00
2018-07-09T08:55:46.732Z,84736.00
2018-07-09T08:56:46.700Z,86656.00
2018-07-09T08:57:46.692Z,62208.00
2018-07-09T08:58:46.682Z,47072.00
2018-07-09T08:59:46.665Z,69056.00
2018-07-09T09:00:46.670Z,86016.00
2018-07-09T09:01:46.656Z,73984.00
2018-07-09T09:02:46.659Z,83392.00
2018-07-09T09:03:46.677Z,91296.00
2018-07-09T09:04:46.613Z,92768.00
2018-07-09T09:05:46.602Z,99616.00
2018-07-09T09:06:46.609Z,114912.00
2018-07-09T09:07:46.580Z,101440.00
2018-07-09T09:08:46.570Z,119392.00
2018-07-09T09:09:46.561Z,116032.00
2018-07-09T09:10:46.550Z,123712.00
2018-07-09T09:11:46.550Z,113408.00
2018-07-09T09:12:46.632Z,103584.00
2018-07-09T09:13:46.517Z,104256.00
2018-07-09T09:14:46.508Z,103904.00
2018-07-09T09:15:46.492Z,101248.00
2018-07-09T09:16:46.498Z,118336.00
2018-07-09T09:17:46.471Z,115552.00
2018-07-09T09:18:46.461Z,123872.00
2018-07-09T09:19:46.458Z,124960.00
2018-07-09T09:20:46.441Z,27712.00
2018-07-09T09:21:46.447Z,54656.00
2018-07-09T09:22:46.420Z,74784.00
2018-07-09T09:23:46.415Z,76384.00
2018-07-09T09:24:46.400Z,26912.00
2018-07-09T09:25:46.389Z,31648.00
2018-07-09T09:26:46.373Z,60160.00
2018-07-09T09:27:46.376Z,76576.00
2018-07-09T09:28:46.359Z,49152.00
2018-07-09T09:29:46.343Z,109568.00
2018-07-09T09:30:46.336Z,107776.00
2018-07-09T09:31:46.320Z,126048.00
2018-07-09T09:32:46.322Z,107552.00
2018-07-09T09:33:46.298Z,125120.00
2018-07-09T09:34:46.291Z,138464.00
2018-07-09T09:35:46.277Z,145312.00
2018-07-09T09:36:46.273Z,154208.00
2018-07-09T09:37:46.266Z,147840.00
2018-07-09T09:38:46.245Z,150528.00
2018-07-09T09:39:46.237Z,153024.00
2018-07-09T09:40:46.222Z,122496.00
2018-07-09T09:41:46.213Z,144416.00
2018-07-09T09:42:46.212Z,144512.00
2018-07-09T09:43:46.190Z,144256.00
2018-07-09T09:44:46.179Z,146720.00
2018-07-09T09:45:46.177Z,144832.00
2018-07-09T09:46:46.163Z,149184.00
2018-07-09T09:47:46.164Z,147328.00
2018-07-09T09:48:46.150Z,152160.00
2018-07-09T09:49:46.131Z,152800.00
2018-07-09T09:50:46.119Z,135808.00
2018-07-09T09:51:46.114Z,127104.00
2018-07-09T09:52:46.097Z,102656.00
2018-07-09T09:53:46.094Z,77568.00
2018-07-09T09:54:46.072Z,66592.00
2018-07-09T09:55:46.066Z,58624.00
2018-07-09T09:56:46.052Z,43744.00
2018-07-09T09:57:46.039Z,23328.00
2018-07-09T09:58:46.042Z,17248.00
2018-07-09T09:59:46.024Z,18272.00
2018-07-09T10:00:46.012Z,16416.00
2018-07-09T10:01:45.996Z,12768.00
2018-07-09T10:02:45.989Z,11728.00
2018-07-09T10:03:45.993Z,11116.00
2018-07-09T10:04:45.969Z,11232.00
2018-07-09T10:05:45.954Z,11244.00
2018-07-09T10:06:45.943Z,14172.00
2018-07-09T10:07:45.931Z,16480.00
2018-07-09T10:08:45.933Z,19488.00
2018-07-09T10:09:45.914Z,22272.00
2018-07-09T10:10:45.902Z,24064.00
2018-07-09T10:11:45.891Z,27808.00
2018-07-09T10:12:45.878Z,20032.00
2018-07-09T10:13:45.884Z,13176.00
2018-07-09T10:14:45.857Z,12876.00
2018-07-09T10:15:45.849Z,12376.00
2018-07-09T10:16:45.866Z,11684.00
2018-07-09T10:17:45.829Z,11272.00
2018-07-09T10:18:45.812Z,10560.00
2018-07-09T10:19:45.813Z,10180.00
2018-07-09T10:20:45.793Z,9676.00
2018-07-09T10:21:45.783Z,9252.00
2018-07-09T10:22:45.795Z,8804.00
2018-07-09T10:23:45.767Z,8396.00
2018-07-09T10:24:45.772Z,8016.00
2018-07-09T10:25:45.738Z,7824.00
2018-07-09T10:26:45.738Z,7748.00
2018-07-09T10:27:45.782Z,7708.00
2018-07-09T10:28:45.706Z,7496.00
2018-07-09T10:29:45.706Z,8968.00
2018-07-09T10:30:45.685Z,11708.00
2018-07-09T10:31:45.674Z,11580.00
2018-07-09T10:32:45.675Z,10396.00
2018-07-09T10:33:45.674Z,8908.00
2018-07-09T10:34:45.655Z,8072.00
2018-07-09T10:35:45.632Z,7828.00
2018-07-09T10:36:45.620Z,8416.00
2018-07-09T10:37:45.612Z,8656.00
2018-07-09T10:38:45.605Z,7460.00
2018-07-09T10:39:45.598Z,9628.00
2018-07-09T10:40:45.579Z,9500.00
2018-07-09T10:41:45.569Z,8756.00
2018-07-09T10:42:45.555Z,9988.00
2018-07-09T10:43:45.544Z,9572.00
2018-07-09T10:44:45.543Z,10788.00
2018-07-09T10:45:45.525Z,10808.00
2018-07-09T10:46:45.514Z,8624.00
2018-07-09T10:47:45.507Z,7668.00
2018-07-09T10:48:45.494Z,7232.00
2018-07-09T10:49:45.516Z,7452.00
2018-07-09T10:50:45.471Z,7984.00
2018-07-09T10:51:45.468Z,6968.00
2018-07-09T10:52:45.448Z,7084.00
2018-07-09T10:53:45.436Z,7176.00
2018-07-09T10:54:45.426Z,7428.00
2018-07-09T10:55:45.474Z,6788.00
2018-07-09T10:56:45.405Z,6336.00
2018-07-09T10:57:45.431Z,6736.00
2018-07-09T10:58:45.383Z,6864.00
2018-07-09T10:59:45.372Z,6484.00
2018-07-09T11:00:45.435Z,5756.00
2018-07-09T11:01:45.350Z,5840.00
2018-07-09T11:02:45.339Z,6060.00
2018-07-09T11:03:45.327Z,6064.00
2018-07-09T11:04:45.317Z,5944.00
2018-07-09T11:05:45.323Z,5652.00
2018-07-09T11:06:45.296Z,5420.00
2018-07-09T11:07:45.287Z,5216.00
2018-07-09T11:08:45.278Z,5176.00
2018-07-09T11:09:45.323Z,5188.00
2018-07-09T11:10:45.267Z,5192.00
2018-07-09T11:11:45.243Z,5388.00
2018-07-09T11:12:45.235Z,5736.00
2018-07-09T11:13:45.221Z,5864.00
2018-07-09T11:14:45.220Z,6004.00
2018-07-09T11:15:45.218Z,5684.00
2018-07-09T11:16:45.188Z,5448.00
2018-07-09T11:17:45.179Z,5508.00
2018-07-09T11:18:45.172Z,5672.00
2018-07-09T11:19:45.157Z,5820.00
2018-07-09T11:20:45.150Z,6052.00
2018-07-09T11:21:45.268Z,5952.00
2018-07-09T11:22:45.124Z,5556.00
2018-07-09T11:23:45.113Z,5256.00
2018-07-09T11:24:45.104Z,5248.00
2018-07-09T11:25:45.097Z,5148.00
2018-07-09T11:26:45.091Z,4996.00
2018-07-09T11:27:45.072Z,4968.00
2018-07-09T11:28:45.062Z,4880.00
2018-07-09T11:29:45.053Z,4696.00
2018-07-09T11:30:45.043Z,4756.00
2018-07-09T11:31:45.045Z,4728.00
2018-07-09T11:32:45.019Z,4728.00
2018-07-09T11:33:45.065Z,4636.00
2018-07-09T11:34:44.994Z,4524.00
2018-07-09T11:35:44.989Z,4436.00
2018-07-09T11:36:44.988Z,4408.00
2018-07-09T11:37:44.965Z,4408.00
2018-07-09T11:38:44.953Z,4460.00
2018-07-09T11:39:44.941Z,4336.00
2018-07-09T11:40:44.989Z,4272.00
2018-07-09T11:41:44.930Z,4216.00
2018-07-09T11:42:44.908Z,4180.00
2018-07-09T11:43:44.903Z,4064.00
2018-07-09T11:44:44.894Z,4032.00
2018-07-09T11:45:44.877Z,3996.00
2018-07-09T11:46:44.877Z,3988.00
2018-07-09T11:47:44.855Z,4004.00
2018-07-09T11:48:44.846Z,3956.00
2018-07-09T11:49:44.833Z,3936.00
2018-07-09T11:50:44.822Z,3916.00
2018-07-09T11:51:44.824Z,3900.00
2018-07-09T11:52:44.803Z,3888.00
2018-07-09T11:53:44.793Z,3860.00
2018-07-09T11:54:44.782Z,3812.00
2018-07-09T11:55:44.768Z,3780.00
2018-07-09T11:56:44.768Z,3744.00
2018-07-09T11:57:44.747Z,3728.00
2018-07-09T11:58:44.829Z,3708.00
2018-07-09T11:59:44.728Z,3664.00
2018-07-09T12:00:44.712Z,3636.00
2018-07-09T12:01:44.718Z,3604.00
2018-07-09T12:02:44.710Z,3588.00
2018-07-09T12:03:44.686Z,3568.00
2018-07-09T12:04:44.677Z,3544.00
2018-07-09T12:05:44.661Z,3500.00
2018-07-09T12:06:44.664Z,3484.00
2018-07-09T12:07:44.639Z,3496.00
2018-07-09T12:08:44.643Z,3488.00
2018-07-09T12:09:44.629Z,3484.00
2018-07-09T12:10:44.607Z,3480.00
2018-07-09T12:11:44.614Z,3460.00
2018-07-09T12:12:44.585Z,3448.00
2018-07-09T12:13:44.579Z,3424.00
2018-07-09T12:14:44.602Z,3408.00
2018-07-09T12:15:44.553Z,3384.00
2018-07-09T12:16:44.553Z,3372.00
2018-07-09T12:17:44.530Z,3344.00
2018-07-09T12:18:44.520Z,3320.00
2018-07-09T12:19:44.510Z,3312.00
2018-07-09T12:20:44.500Z,3284.00
2018-07-09T12:21:44.557Z,3264.00
2018-07-09T12:22:44.477Z,3244.00
2018-07-09T12:23:44.471Z,3228.00
2018-07-09T12:24:44.456Z,3228.00
2018-07-09T12:25:44.445Z,3224.00
2018-07-09T12:26:44.452Z,3204.00
2018-07-09T12:27:44.423Z,3176.00
2018-07-09T12:28:44.412Z,3148.00
2018-07-09T12:29:44.403Z,3128.00
2018-07-09T12:30:44.416Z,3108.00
2018-07-09T12:31:44.404Z,3088.00
2018-07-09T12:32:44.369Z,3080.00
2018-07-09T12:33:44.361Z,3048.00
2018-07-09T12:34:44.347Z,3044.00
2018-07-09T12:35:44.345Z,3024.00
2018-07-09T12:36:44.326Z,3004.00
2018-07-09T12:37:44.330Z,2984.00
2018-07-09T12:38:44.321Z,2964.00
2018-07-09T12:39:44.296Z,2932.00
2018-07-09T12:40:44.292Z,2912.00
2018-07-09T12:41:44.272Z,2904.00
2018-07-09T12:42:44.275Z,2892.00
2018-07-09T12:43:44.266Z,2884.00
2018-07-09T12:44:44.248Z,2884.00
2018-07-09T12:45:44.231Z,2896.00
2018-07-09T12:46:44.218Z,2916.00
2018-07-09T12:47:44.217Z,2920.00
2018-07-09T12:48:44.195Z,2916.00
2018-07-09T12:49:44.243Z,2912.00
2018-07-09T12:50:44.180Z,2900.00
2018-07-09T12:51:44.188Z,2880.00
2018-07-09T12:52:44.168Z,2852.00
2018-07-09T12:53:44.148Z,2848.00
2018-07-09T12:54:44.135Z,2828.00
2018-07-09T12:55:44.179Z,2812.00
2018-07-09T12:56:44.129Z,2800.00
2018-07-09T12:57:44.114Z,2776.00
2018-07-09T12:58:44.094Z,2760.00
2018-07-09T12:59:44.077Z,2752.00
2018-07-09T13:00:44.068Z,2748.00
2018-07-09T13:01:44.122Z,2740.00
2018-07-09T13:02:44.060Z,2736.00
2018-07-09T13:03:44.037Z,2744.00
2018-07-09T13:04:44.023Z,2744.00
2018-07-09T13:05:44.019Z,2736.00
2018-07-09T13:06:44.002Z,2744.00
2018-07-09T13:07:44.004Z,2740.00
2018-07-09T13:08:43.982Z,2732.00
2018-07-09T13:09:43.970Z,2696.00
2018-07-09T13:10:43.961Z,2624.00
2018-07-09T13:11:43.961Z,2644.00
2018-07-09T13:12:43.958Z,2624.00
2018-07-09T13:13:43.929Z,2604.00
2018-07-09T13:14:43.919Z,2588.00
2018-07-09T13:15:43.906Z,2592.00
2018-07-09T13:16:43.902Z,2604.00
2018-07-09T13:17:43.895Z,2604.00
2018-07-09T13:18:43.877Z,2600.00
2018-07-09T13:19:43.863Z,2584.00
2018-07-09T13:20:43.852Z,2576.00
2018-07-09T13:21:43.839Z,2572.00
2018-07-09T13:22:43.843Z,2580.00
2018-07-09T13:23:43.820Z,2564.00
2018-07-09T13:24:43.814Z,2548.00
2018-07-09T13:25:43.797Z,2520.00
2018-07-09T13:26:43.787Z,2532.00
2018-07-09T13:27:43.789Z,2468.00
2018-07-09T13:28:43.766Z,2328.00
2018-07-09T13:29:43.754Z,2356.00
2018-07-09T13:30:43.784Z,2404.00
2018-07-09T13:31:43.733Z,2444.00
2018-07-09T13:32:43.732Z,2476.00
2018-07-09T13:33:43.711Z,2484.00
2018-07-09T13:34:43.700Z,2492.00
2018-07-09T13:35:43.692Z,2504.00
2018-07-09T13:36:43.680Z,2500.00
2018-07-09T13:37:43.680Z,2480.00
2018-07-09T13:38:43.658Z,2488.00
2018-07-09T13:39:43.648Z,2496.00
2018-07-09T13:40:43.634Z,2544.00
2018-07-09T13:41:43.622Z,2556.00
2018-07-09T13:42:43.627Z,2540.00
2018-07-09T13:43:43.605Z,2544.00
2018-07-09T13:44:43.596Z,2528.00
2018-07-09T13:45:43.581Z,2516.00
2018-07-09T13:46:43.570Z,2500.00
2018-07-09T13:47:43.578Z,2480.00
2018-07-09T13:48:43.549Z,2456.00
2018-07-09T13:49:43.540Z,2444.00
2018-07-09T13:50:43.529Z,2420.00
2018-07-09T13:51:43.514Z,2408.00
2018-07-09T13:52:43.529Z,2404.00
2018-07-09T13:53:43.496Z,2396.00
2018-07-09T13:54:43.484Z,2400.00
2018-07-09T13:55:43.473Z,2400.00
2018-07-09T13:56:43.463Z,2412.00
2018-07-09T13:57:43.466Z,2432.00
2018-07-09T13:58:43.439Z,2484.00
2018-07-09T13:59:43.430Z,2564.00
2018-07-09T14:00:43.421Z,2616.00
2018-07-09T14:01:43.407Z,2652.00
2018-07-09T14:02:43.416Z,2648.00
2018-07-09T14:03:43.392Z,2620.00
2018-07-09T14:04:43.374Z,2580.00
2018-07-09T14:05:43.367Z,2572.00
2018-07-09T14:06:43.354Z,2520.00
2018-07-09T14:07:43.345Z,2488.00
2018-07-09T14:08:43.347Z,2488.00
2018-07-09T14:09:43.330Z,2492.00
2018-07-09T14:10:43.313Z,2476.00
2018-07-09T14:11:43.300Z,2448.00
2018-07-09T14:12:43.289Z,2428.00
2018-07-09T14:13:43.288Z,2412.00
2018-07-09T14:14:43.269Z,2376.00
2018-07-09T14:15:43.261Z,2352.00
2018-07-09T14:16:43.244Z,2340.00
2018-07-09T14:17:43.237Z,2348.00
2018-07-09T14:18:43.237Z,2336.00
2018-07-09T14:19:43.217Z,2348.00
2018-07-09T14:20:43.201Z,2352.00
2018-07-09T14:21:43.194Z,2388.00
2018-07-09T14:22:43.183Z,2432.00
2018-07-09T14:23:43.182Z,2496.00
2018-07-09T14:24:43.159Z,2620.00
2018-07-09T14:25:43.150Z,2824.00
2018-07-09T14:26:43.139Z,3160.00
2018-07-09T14:27:43.130Z,3412.00
2018-07-09T14:28:43.130Z,3768.00
2018-07-09T14:29:43.162Z,4208.00
2018-07-09T14:30:43.097Z,4428.00
2018-07-09T14:31:43.093Z,4416.00
2018-07-09T14:32:43.071Z,4264.00
2018-07-09T14:33:43.077Z,4188.00
2018-07-09T14:34:43.051Z,4156.00
2018-07-09T14:35:43.048Z,4152.00
2018-07-09T14:36:43.036Z,4332.00
2018-07-09T14:37:43.017Z,4604.00
2018-07-09T14:38:43.029Z,4836.00
2018-07-09T14:39:42.997Z,5008.00
2018-07-09T14:40:42.985Z,5104.00
2018-07-09T14:41:43.016Z,5220.00
2018-07-09T14:42:42.971Z,5352.00
2018-07-09T14:43:42.969Z,5612.00
2018-07-09T14:44:42.942Z,5964.00
2018-07-09T14:45:42.934Z,6428.00
2018-07-09T14:46:42.924Z,6900.00
2018-07-09T14:47:42.909Z,7276.00
2018-07-09T14:48:42.910Z,7484.00
2018-07-09T14:49:42.893Z,7644.00
2018-07-09T14:50:42.877Z,7904.00
2018-07-09T14:51:42.898Z,8044.00
2018-07-09T14:52:42.857Z,8188.00
2018-07-09T14:53:42.860Z,8068.00
2018-07-09T14:54:42.837Z,7792.00
2018-07-09T14:55:42.824Z,7484.00
2018-07-09T14:56:42.815Z,7144.00
2018-07-09T14:57:42.808Z,6868.00
2018-07-09T14:58:42.837Z,6632.00
2018-07-09T14:59:42.779Z,6372.00
2018-07-09T15:00:42.771Z,6096.00
2018-07-09T15:01:42.762Z,5848.00
2018-07-09T15:02:42.755Z,5700.00
2018-07-09T15:03:42.756Z,5608.00
2018-07-09T15:04:42.728Z,5640.00
2018-07-09T15:05:42.713Z,5692.00
2018-07-09T15:06:42.708Z,5824.00
2018-07-09T15:07:42.694Z,6048.00
2018-07-09T15:08:42.698Z,6376.00
2018-07-09T15:09:42.708Z,6684.00
2018-07-09T15:10:42.675Z,7084.00
2018-07-09T15:11:42.650Z,7608.00
2018-07-09T15:12:42.640Z,8112.00
2018-07-09T15:13:42.639Z,8564.00
2018-07-09T15:14:42.617Z,8944.00
2018-07-09T15:15:42.626Z,9268.00
2018-07-09T15:16:42.598Z,9528.00
2018-07-09T15:17:42.587Z,9672.00
2018-07-09T15:18:42.588Z,9644.00
2018-07-09T15:19:42.565Z,9496.00
2018-07-09T15:20:42.553Z,9348.00
2018-07-09T15:21:42.543Z,9160.00
2018-07-09T15:22:42.535Z,8948.00
2018-07-09T15:23:42.531Z,8664.00
2018-07-09T15:24:42.509Z,8272.00
2018-07-09T15:25:42.498Z,7864.00
2018-07-09T15:26:42.516Z,7472.00
2018-07-09T15:27:42.477Z,7048.00
2018-07-09T15:28:42.480Z,6628.00
2018-07-09T15:29:42.490Z,6228.00
2018-07-09T15:30:42.443Z,5896.00
2018-07-09T15:31:42.431Z,5628.00
2018-07-09T15:32:42.420Z,5388.00
2018-07-09T15:33:42.423Z,5240.00
2018-07-09T15:34:42.401Z,5216.00
2018-07-09T15:35:42.391Z,5244.00
2018-07-09T15:36:42.419Z,5156.00
2018-07-09T15:37:42.367Z,5180.00
2018-07-09T15:38:42.441Z,5248.00
2018-07-09T15:39:42.345Z,5340.00
2018-07-09T15:40:42.333Z,5388.00
2018-07-09T15:41:42.324Z,5432.00
2018-07-09T15:42:42.331Z,5496.00
2018-07-09T15:43:42.301Z,5560.00
2018-07-09T15:44:42.305Z,5660.00
2018-07-09T15:45:42.280Z,5772.00
2018-07-09T15:46:42.267Z,5828.00
2018-07-09T15:47:42.256Z,5840.00
2018-07-09T15:48:42.256Z,5876.00
2018-07-09T15:49:42.250Z,5840.00
2018-07-09T15:50:42.225Z,5744.00
2018-07-09T15:51:42.217Z,5560.00
2018-07-09T15:52:42.317Z,5360.00
2018-07-09T15:53:42.192Z,5184.00
2018-07-09T15:54:42.192Z,5064.00
2018-07-09T15:55:42.169Z,4916.00
2018-07-09T15:56:42.166Z,4804.00
2018-07-09T15:57:42.150Z,4684.00
2018-07-09T15:58:42.216Z,4668.00
2018-07-09T15:59:42.137Z,4732.00
2018-07-09T16:00:42.133Z,4888.00